Available on Board Game Arena Available on Board Game Arena

Games History

Game history for Acarus
Game: 

Games History
[Last 15 days] | [2022 (11)] | [2021 (48)] | [2020 (8)] 
Date Acarus's score Other players and scores Variant Rated Game
12/29/2021 147 Game of Trains(144) - Safavimax(25) - annysa23(121) e3 x
12/18/2021 141 paudax(228) - valent1na(115) - niiT_(188) e3 x
12/03/2021 90 altego(112) - CadenceLion(90) - Choc(102) e3 x
10/26/2021 146 paudax(148) - KoosTreinkaartjeloos(83) - Ushan(122) e3 x
10/17/2021 139 Polihymia(98) - stephbowdrey(146) - chupal01(0) e3 x
10/16/2021 148 svet2589(175) - travelling7(114) - bear810(0) e3 x
10/16/2021 170 player2170352(167) - leneken(121) - dyb-dyb(73) e3 x
10/10/2021 168 soleybj3(103) - izazou_51(115) - bassist6(116) e3 x
09/29/2021 155 sabinalrosca(127) - grmir2018(68) - jinx4you(146) e3 x
09/28/2021 164 remonp(110) - mauror(156) - 1andra1(129) e3 x
09/27/2021 168 *player6598504(152) - CassieDon(33) - trikucian(83) e3 x
09/24/2021 118 Dinah Moe(171) - Samson56(141) - HeMaS(0) e3 x
09/23/2021 178 mastiv13(125) - Magduska(196) - NiceWorld(172) e3 x
07/26/2021 123 paudax(151) - raivapaiva(104) - ToucheAway(45) e3 x
07/11/2021 146 SauCysson(204) - HeMaS(90) - michaelbullock(0) e3
07/10/2021 136 Monkey Pillow(180) - wattsofdorridge(128) - nleirave(116) e3 x
07/04/2021 177 alpakute(161) - do_rit(165) - frogrock2(123) e3 x
07/04/2021 108 altego(224) - Christantine(152) - ayerox(150) e3 x
07/02/2021 120 MrsFusilli(177) - netsfr(99) - mustbeniceygo(141) e3 x
07/02/2021 184 Mariehel(181) - SomeDa(140) - jdpeskypenguin(136) e3 x
Pages (3): [1  2  3  >  » ]